createdAt,value
2018-07-20T00:01:40.832Z,91.30
2018-07-20T00:04:13.872Z,91.40
2018-07-20T00:06:46.815Z,91.20
2018-07-20T00:09:19.908Z,91.30
2018-07-20T00:11:52.977Z,90.70
2018-07-20T00:14:25.911Z,91.30
2018-07-20T00:16:59.104Z,90.60
2018-07-20T00:19:32.145Z,90.90
2018-07-20T00:22:05.193Z,90.20
2018-07-20T00:24:38.259Z,90.00
2018-07-20T00:27:11.209Z,90.00
2018-07-20T00:29:44.477Z,89.60
2018-07-20T00:32:17.568Z,89.60
2018-07-20T00:34:50.810Z,87.70
2018-07-20T00:44:11.454Z,87.30
2018-07-20T00:46:44.651Z,87.00
2018-07-20T00:49:17.943Z,88.50
2018-07-20T00:51:51.201Z,88.70
2018-07-20T00:54:24.398Z,88.10
2018-07-20T00:56:58.036Z,87.30
2018-07-20T00:59:31.219Z,88.50
2018-07-20T01:02:04.301Z,88.80
2018-07-20T01:04:37.448Z,89.90
2018-07-20T01:07:10.671Z,88.50
2018-07-20T01:09:43.723Z,88.70
2018-07-20T01:12:16.717Z,87.90
2018-07-20T01:14:49.838Z,86.00
2018-07-20T01:17:22.952Z,86.40
2018-07-20T01:19:56.154Z,87.20
2018-07-20T01:22:29.210Z,87.20
2018-07-20T01:25:02.257Z,87.50
2018-07-20T01:27:35.452Z,89.10
2018-07-20T01:30:08.509Z,88.10
2018-07-20T01:32:41.461Z,88.20
2018-07-20T01:35:14.673Z,86.40
2018-07-20T01:37:47.738Z,88.00
2018-07-20T01:40:20.864Z,87.60
2018-07-20T01:42:54.157Z,86.80
2018-07-20T01:45:27.162Z,88.10
2018-07-20T01:48:00.317Z,87.50
2018-07-20T01:50:33.491Z,87.80
2018-07-20T01:53:06.443Z,88.70
2018-07-20T01:55:39.525Z,88.30
2018-07-20T01:58:12.558Z,89.30
2018-07-20T02:00:45.746Z,88.00
2018-07-20T02:03:18.825Z,88.90
2018-07-20T02:05:51.852Z,88.50
2018-07-20T02:08:25.208Z,89.60
2018-07-20T02:11:02.973Z,88.90
2018-07-20T02:13:36.093Z,89.50
2018-07-20T02:16:09.151Z,90.40
2018-07-20T02:18:42.260Z,90.30
2018-07-20T02:21:15.258Z,90.20
2018-07-20T02:23:48.273Z,90.30
2018-07-20T02:26:21.338Z,90.20
2018-07-20T02:28:54.397Z,90.60
2018-07-20T02:31:27.613Z,90.00
2018-07-20T02:34:00.760Z,89.50
2018-07-20T02:36:33.874Z,89.60
2018-07-20T02:39:08.985Z,89.10
2018-07-20T02:41:42.402Z,89.60
2018-07-20T02:44:15.381Z,90.10
2018-07-20T02:46:48.344Z,90.30
2018-07-20T02:49:21.442Z,90.40
2018-07-20T02:51:54.544Z,90.20
2018-07-20T02:54:27.719Z,90.40
2018-07-20T02:57:00.904Z,90.00
2018-07-20T02:59:34.061Z,91.10
2018-07-20T03:02:07.064Z,90.80
2018-07-20T03:04:40.054Z,91.30
2018-07-20T03:07:12.963Z,91.10
2018-07-20T03:09:45.961Z,90.70
2018-07-20T03:12:18.984Z,91.00
2018-07-20T03:14:52.125Z,91.30
2018-07-20T03:17:25.185Z,91.10
2018-07-20T03:19:58.256Z,91.60
2018-07-20T03:22:31.205Z,94.70
2018-07-20T03:25:04.417Z,92.80
2018-07-20T03:27:37.557Z,92.80
2018-07-20T03:30:10.824Z,94.00
2018-07-20T03:32:43.953Z,93.60
2018-07-20T03:35:17.193Z,93.30
2018-07-20T03:37:50.370Z,93.90
2018-07-20T03:40:23.499Z,93.30
2018-07-20T03:42:56.514Z,93.20
2018-07-20T03:45:29.494Z,93.30
2018-07-20T03:48:02.656Z,93.40
2018-07-20T03:50:35.827Z,93.50
2018-07-20T03:53:08.964Z,93.80
2018-07-20T03:55:42.047Z,94.00
2018-07-20T03:58:15.280Z,94.00
2018-07-20T04:00:48.412Z,94.20
2018-07-20T04:03:21.757Z,94.20
2018-07-20T04:05:54.892Z,94.60
2018-07-20T04:08:28.011Z,94.60
2018-07-20T04:11:01.043Z,95.10
2018-07-20T04:13:34.185Z,94.60
2018-07-20T04:16:07.352Z,94.60
2018-07-20T04:18:40.546Z,95.10
2018-07-20T04:21:13.675Z,94.80
2018-07-20T04:23:46.776Z,95.60
2018-07-20T04:26:20.830Z,95.30
2018-07-20T04:28:55.740Z,95.20
2018-07-20T04:31:28.863Z,95.20
2018-07-20T04:34:01.936Z,95.50
2018-07-20T04:36:35.183Z,95.60
2018-07-20T04:39:10.897Z,95.70
2018-07-20T04:41:44.455Z,96.30
2018-07-20T04:44:17.743Z,96.40
2018-07-20T04:46:50.849Z,96.20
2018-07-20T04:49:23.909Z,96.40
2018-07-20T04:51:57.207Z,96.90
2018-07-20T04:54:30.254Z,96.40
2018-07-20T04:57:03.372Z,96.70
2018-07-20T04:59:36.489Z,96.90
2018-07-20T05:02:10.047Z,97.00
2018-07-20T05:04:43.117Z,96.70
2018-07-20T05:07:16.147Z,97.50
2018-07-20T05:09:49.339Z,96.90
2018-07-20T05:12:22.686Z,97.10
2018-07-20T05:14:55.839Z,97.20
2018-07-20T05:17:29.106Z,97.50
2018-07-20T05:20:02.221Z,97.30
2018-07-20T05:22:35.178Z,97.70
2018-07-20T05:25:08.415Z,98.20
2018-07-20T05:27:41.390Z,98.30
2018-07-20T05:30:14.771Z,98.90
2018-07-20T05:32:48.002Z,99.20
2018-07-20T05:35:21.336Z,99.10
2018-07-20T05:37:54.657Z,99.00
2018-07-20T05:40:27.621Z,99.10
2018-07-20T05:43:00.621Z,98.90
2018-07-20T05:45:33.586Z,99.40
2018-07-20T05:48:06.612Z,99.30
2018-07-20T05:50:39.758Z,99.30
2018-07-20T05:53:12.721Z,99.40
2018-07-20T05:55:45.892Z,99.50
2018-07-20T05:58:19.010Z,99.20
2018-07-20T06:00:52.340Z,99.10
2018-07-20T06:03:26.058Z,99.40
2018-07-20T06:05:59.353Z,99.40
2018-07-20T06:08:32.935Z,99.50
2018-07-20T06:11:05.943Z,99.50
2018-07-20T06:13:38.860Z,99.40
2018-07-20T06:16:12.159Z,99.60
2018-07-20T06:18:45.448Z,99.80
2018-07-20T06:21:18.581Z,99.90
2018-07-20T06:23:51.814Z,99.90
2018-07-20T06:26:25.241Z,99.90
2018-07-20T06:28:58.692Z,99.90
2018-07-20T06:31:32.053Z,99.90
2018-07-20T06:34:05.313Z,99.90
2018-07-20T06:36:38.483Z,99.90
2018-07-20T06:39:14.252Z,99.90
2018-07-20T06:41:47.483Z,99.90
2018-07-20T06:44:20.582Z,99.90
2018-07-20T06:46:53.720Z,99.90
2018-07-20T06:49:26.835Z,99.90
2018-07-20T06:51:59.979Z,99.90
2018-07-20T06:54:33.204Z,99.90
2018-07-20T06:57:06.290Z,99.90
2018-07-20T06:59:39.292Z,99.90
2018-07-20T07:02:12.371Z,99.90
2018-07-20T07:04:45.607Z,99.90
2018-07-20T07:07:18.905Z,99.90
2018-07-20T07:09:51.956Z,99.90
2018-07-20T07:12:25.042Z,99.90
2018-07-20T07:14:58.751Z,99.90
2018-07-20T07:17:31.758Z,99.90
2018-07-20T07:20:04.922Z,99.90
2018-07-20T07:22:38.588Z,99.90
2018-07-20T07:25:11.680Z,99.90
2018-07-20T07:27:44.803Z,99.90
2018-07-20T07:30:18.157Z,99.90
2018-07-20T07:32:51.282Z,99.90
2018-07-20T07:35:24.425Z,99.90
2018-07-20T07:37:57.416Z,99.90
2018-07-20T07:40:30.656Z,99.90
2018-07-20T07:43:03.554Z,99.90
2018-07-20T14:39:04.991Z,99.90
2018-07-20T14:41:38.993Z,99.40
2018-07-20T14:44:15.505Z,98.80
2018-07-20T14:46:49.939Z,98.60
2018-07-20T14:49:23.028Z,99.50
2018-07-20T14:51:56.953Z,99.60
2018-07-20T14:54:30.163Z,99.20
2018-07-20T14:57:04.339Z,99.80
2018-07-20T14:59:37.437Z,99.90
2018-07-20T15:02:10.675Z,99.90
2018-07-20T15:04:43.902Z,99.90
2018-07-20T15:07:17.154Z,99.90
2018-07-20T15:09:50.137Z,99.90
2018-07-20T15:12:23.143Z,99.90
2018-07-20T15:14:56.057Z,99.90
2018-07-20T15:17:28.887Z,99.90
2018-07-20T15:20:01.823Z,99.90
2018-07-20T15:22:34.623Z,99.90
2018-07-20T15:25:07.717Z,99.90
2018-07-20T15:27:40.569Z,99.90
2018-07-20T15:30:13.438Z,99.90
2018-07-20T15:32:46.342Z,99.90
2018-07-20T15:35:19.088Z,99.90
2018-07-20T15:37:52.317Z,99.90
2018-07-20T15:40:25.156Z,99.90
2018-07-20T15:42:58.150Z,99.90
2018-07-20T15:45:30.957Z,99.90
2018-07-20T15:48:03.886Z,99.90
2018-07-20T15:50:36.887Z,99.90
2018-07-20T15:53:37.678Z,99.90
2018-07-20T15:55:42.836Z,99.90
2018-07-20T15:58:15.735Z,99.90
2018-07-20T16:00:48.578Z,99.90
2018-07-20T16:03:21.349Z,99.90
2018-07-20T16:05:54.245Z,99.90
2018-07-20T16:08:27.031Z,99.90
2018-07-20T16:10:59.837Z,99.90
2018-07-20T16:20:19.468Z,99.90
2018-07-20T16:22:52.287Z,99.90
2018-07-20T16:25:25.220Z,99.90
2018-07-20T16:27:58.013Z,99.90
2018-07-20T16:30:30.881Z,99.90
2018-07-20T16:33:03.700Z,99.90
2018-07-20T16:35:36.498Z,99.90
2018-07-20T16:38:09.390Z,99.10
2018-07-20T16:40:42.216Z,98.90
2018-07-20T16:43:14.995Z,99.20
2018-07-20T16:45:47.805Z,98.80
2018-07-20T16:48:20.639Z,98.80
2018-07-20T16:50:53.506Z,98.50
2018-07-20T16:53:26.321Z,98.20
2018-07-20T16:55:59.243Z,98.00
2018-07-20T16:58:32.060Z,97.50
2018-07-20T17:01:04.928Z,97.00
2018-07-20T17:03:37.733Z,96.90
2018-07-20T17:06:10.654Z,95.90
2018-07-20T17:08:43.460Z,96.80
2018-07-20T17:11:16.343Z,96.80
2018-07-20T17:13:49.416Z,95.70
2018-07-20T17:16:22.236Z,95.50
2018-07-20T17:18:55.293Z,96.30
2018-07-20T17:21:28.125Z,96.30
2018-07-20T17:24:01.419Z,95.10
2018-07-20T17:26:34.307Z,95.50
2018-07-20T17:29:07.102Z,94.40
2018-07-20T17:31:39.918Z,94.30
2018-07-20T17:34:12.692Z,94.80
2018-07-20T17:36:45.469Z,95.10
2018-07-20T17:39:18.453Z,95.10
2018-07-20T17:41:51.418Z,95.50
2018-07-20T17:44:24.346Z,95.40
2018-07-20T17:46:57.191Z,94.50
2018-07-20T17:49:30.141Z,95.80
2018-07-20T17:52:03.040Z,94.30
2018-07-20T17:54:35.799Z,94.80
2018-07-20T17:57:09.289Z,94.90
2018-07-20T17:59:42.172Z,95.30
2018-07-20T18:02:15.167Z,94.80
2018-07-20T18:04:47.991Z,94.60
2018-07-20T18:07:20.842Z,94.60
2018-07-20T18:09:53.799Z,94.70
2018-07-20T18:12:26.764Z,94.90
2018-07-20T18:14:59.636Z,95.40
2018-07-20T18:17:32.418Z,95.00
2018-07-20T18:20:05.334Z,95.10
2018-07-20T18:22:38.169Z,94.50
2018-07-20T18:25:11.045Z,95.40
2018-07-20T18:27:43.841Z,95.70
2018-07-20T18:30:16.821Z,95.40
2018-07-20T18:32:49.632Z,95.70
2018-07-20T18:35:22.427Z,95.60
2018-07-20T18:37:55.183Z,94.20
2018-07-20T18:40:27.999Z,95.10
2018-07-20T18:43:00.823Z,95.10
2018-07-20T18:45:33.661Z,94.90
2018-07-20T18:48:06.541Z,94.80
2018-07-20T18:50:39.391Z,94.70
2018-07-20T18:53:12.324Z,94.80
2018-07-20T18:55:45.145Z,94.80
2018-07-20T18:58:18.247Z,95.40
2018-07-20T19:00:51.248Z,94.60
2018-07-20T19:03:24.075Z,94.10
2018-07-20T19:05:56.908Z,94.50
2018-07-20T19:08:29.769Z,93.10
2018-07-20T19:11:02.840Z,93.70
2018-07-20T19:13:35.686Z,93.00
2018-07-20T19:16:08.587Z,93.80
2018-07-20T19:18:41.427Z,93.60
2018-07-20T19:21:14.287Z,94.20
2018-07-20T19:23:47.214Z,94.30
2018-07-20T19:26:20.057Z,93.40
2018-07-20T19:28:52.872Z,93.20
2018-07-20T19:31:25.678Z,92.40
2018-07-20T19:33:58.427Z,92.60
2018-07-20T19:36:31.247Z,93.00
2018-07-20T19:39:04.062Z,92.80
2018-07-20T19:41:36.974Z,92.60
2018-07-20T19:44:09.801Z,92.30
2018-07-20T19:46:42.623Z,92.70
2018-07-20T19:49:15.455Z,92.80
2018-07-20T19:51:48.283Z,93.00
2018-07-20T19:54:21.124Z,92.50
2018-07-20T19:56:53.915Z,92.40
2018-07-20T19:59:26.811Z,92.10
2018-07-20T20:02:00.403Z,91.90
2018-07-20T20:04:33.213Z,91.90
2018-07-20T20:07:06.044Z,91.80
2018-07-20T20:09:38.855Z,91.40
2018-07-20T20:12:11.737Z,91.30
2018-07-20T20:14:44.532Z,91.00
2018-07-20T20:17:17.372Z,90.20
2018-07-20T20:19:50.195Z,91.30
2018-07-20T20:22:23.097Z,90.60
2018-07-20T20:24:55.861Z,90.00
2018-07-20T20:27:28.639Z,89.60
2018-07-20T20:30:01.461Z,90.40
2018-07-20T20:32:34.344Z,89.60
2018-07-20T20:35:07.107Z,90.10
2018-07-20T20:37:39.884Z,88.70
2018-07-20T20:40:12.688Z,87.30
2018-07-20T20:42:45.457Z,86.90
2018-07-20T20:45:18.400Z,86.80
2018-07-20T20:47:51.228Z,87.00
2018-07-20T20:50:24.125Z,84.40
2018-07-20T20:52:56.964Z,85.90
2018-07-20T20:55:29.849Z,86.40
2018-07-20T20:58:02.623Z,88.10
2018-07-20T21:00:35.385Z,84.60
2018-07-20T21:03:08.239Z,84.00
2018-07-20T21:05:41.024Z,83.60
2018-07-20T21:08:13.800Z,82.00
2018-07-20T21:10:46.740Z,82.90
2018-07-20T21:13:19.728Z,84.50
2018-07-20T21:15:52.634Z,82.60
2018-07-20T21:18:25.570Z,80.30
2018-07-20T21:20:58.376Z,81.70
2018-07-20T21:23:32.383Z,79.50
2018-07-20T21:26:06.376Z,83.30
2018-07-20T21:28:40.242Z,83.50
2018-07-20T21:31:13.501Z,79.30
2018-07-20T21:33:47.181Z,80.30
2018-07-20T21:36:20.363Z,78.00
2018-07-20T21:38:53.589Z,78.50
2018-07-20T21:41:26.435Z,77.50
2018-07-20T21:43:59.224Z,82.20
2018-07-20T21:46:33.028Z,81.60
2018-07-20T21:49:06.298Z,81.80
2018-07-20T21:51:39.294Z,78.80
2018-07-20T21:54:12.214Z,78.80
2018-07-20T21:56:45.113Z,78.70
2018-07-20T21:59:18.183Z,78.30
2018-07-20T22:01:51.116Z,77.00
2018-07-20T22:04:24.923Z,76.30
2018-07-20T22:06:57.946Z,77.40
2018-07-20T22:09:30.864Z,74.20
2018-07-20T22:12:03.837Z,73.10
2018-07-20T22:14:36.708Z,76.10
2018-07-20T22:17:09.770Z,71.80
2018-07-20T22:19:42.582Z,74.00
2018-07-20T22:22:15.379Z,73.70
2018-07-20T22:24:48.247Z,70.90
2018-07-20T22:27:21.094Z,72.10
2018-07-20T22:29:53.939Z,71.70
2018-07-20T22:32:26.779Z,72.80
2018-07-20T22:34:59.636Z,70.20
2018-07-20T22:37:32.525Z,69.20
2018-07-20T22:40:05.331Z,70.60
2018-07-20T22:42:38.501Z,70.80
2018-07-20T22:45:11.357Z,73.20
2018-07-20T22:47:44.475Z,69.90
2018-07-20T22:50:17.389Z,71.20
2018-07-20T22:52:50.387Z,68.00
2018-07-20T22:55:23.263Z,71.70
2018-07-20T22:57:56.147Z,68.60
2018-07-20T23:00:28.931Z,71.70
2018-07-20T23:03:01.916Z,71.40
2018-07-20T23:05:34.829Z,69.20
2018-07-20T23:08:07.647Z,68.50
2018-07-20T23:10:40.500Z,66.30
2018-07-20T23:13:13.407Z,66.50
2018-07-20T23:15:46.375Z,64.00
2018-07-20T23:18:19.947Z,65.60
2018-07-20T23:20:52.922Z,69.00
2018-07-20T23:23:25.891Z,64.80
2018-07-20T23:25:58.736Z,67.40
2018-07-20T23:28:31.648Z,63.80
2018-07-20T23:31:04.626Z,63.50
2018-07-20T23:33:37.472Z,62.70
2018-07-20T23:36:10.386Z,66.70
2018-07-20T23:38:43.297Z,62.70
2018-07-20T23:41:16.139Z,66.30
2018-07-20T23:43:49.033Z,65.20
2018-07-20T23:46:21.982Z,59.60
2018-07-20T23:48:54.883Z,60.50
2018-07-20T23:51:27.777Z,64.00
2018-07-20T23:54:00.667Z,60.70
2018-07-20T23:56:33.466Z,62.10
2018-07-20T23:59:06.278Z,57.50
